METAR Data
IDs: Format: Raw Decoded Include TAF

Data at: 1821 UTC 16 Oct 2021

KPSN 161815Z AUTO 01007G15KT 340V060 10SM CLR 22/03 A3032 RMK AO2
KPSN 161755Z AUTO 03014KT 10SM CLR 22/01 A3033 RMK AO2
KPSN 161735Z AUTO 05012G18KT 10SM CLR 21/01 A3034 RMK AO2
KPSN 161715Z AUTO 04012G20KT 10SM CLR 21/02 A3034 RMK AO2
KPSN 161655Z AUTO 02010G17KT 330V040 10SM CLR 21/03 A3035 RMK AO2
KPSN 161635Z AUTO 36012G18KT 10SM CLR 20/04 A3035 RMK AO2
KPSN 161615Z AUTO 36013KT 10SM CLR 20/04 A3035 RMK AO2
KPSN 161555Z AUTO 02007G13KT 350V050 10SM CLR 20/06 A3035 RMK AO2
KPSN 161535Z AUTO 01009KT 10SM CLR 19/07 A3036 RMK AO2
KPSN 161515Z AUTO 35008KT 10SM CLR 18/08 A3036 RMK AO2
KPSN 161455Z AUTO 01007KT 10SM CLR 17/09 A3035 RMK AO2
KPSN 161435Z AUTO 35005KT 10SM CLR 15/11 A3035 RMK AO2
KPSN 161415Z AUTO 36005KT 10SM CLR 14/11 A3034 RMK AO2
KPSN 161355Z AUTO 36004KT 10SM CLR 13/10 A3034 RMK AO2
KPSN 161335Z AUTO 00000KT 10SM CLR 12/10 A3033 RMK AO2
KPSN 161315Z AUTO 00000KT 10SM CLR 10/10 A3032 RMK AO2
KPSN 161255Z AUTO 00000KT 10SM CLR 08/08 A3031 RMK AO2
KPSN 161235Z AUTO 10SM CLR 09/08 A3030 RMK AO2
KPSN 161215Z AUTO 00000KT 10SM CLR 09/08 A3030 RMK AO2
KPSN 161155Z AUTO 00000KT 10SM CLR 09/08 A3030 RMK AO2
KPSN 161135Z AUTO 00000KT 10SM CLR 10/08 A3029 RMK AO2
KPSN 161115Z AUTO 00000KT 10SM CLR 10/08 A3028 RMK AO2
KPSN 161055Z AUTO 00000KT 10SM CLR 10/09 A3027 RMK AO2
KPSN 161035Z AUTO 36004KT 10SM CLR 09/09 A3026 RMK AO2
KPSN 161015Z AUTO 34005KT 10SM CLR 10/09 A3026 RMK AO2
KPSN 160955Z AUTO 35004KT 10SM CLR 10/09 A3026 RMK AO2
KPSN 160935Z AUTO 00000KT 10SM CLR 10/09 A3026 RMK AO2
KPSN 160915Z AUTO 00000KT 10SM CLR 11/09 A3025 RMK AO2
KPSN 160855Z AUTO 35003KT 10SM CLR 12/09 A3025 RMK AO2
KPSN 160835Z AUTO 00000KT 10SM CLR 11/09 A3025 RMK AO2
KPSN 160815Z AUTO 00000KT 10SM CLR 13/09 A3026 RMK AO2
KPSN 160755Z AUTO 36005KT 10SM CLR 12/09 A3025 RMK AO2
KPSN 160735Z AUTO 00000KT 10SM CLR 12/09 A3025 RMK AO2
KPSN 160715Z AUTO 00000KT 10SM CLR 13/09 A3024 RMK AO2
KPSN 160655Z AUTO 00000KT 10SM CLR 13/09 A3024 RMK AO2
KPSN 160635Z AUTO 36005KT 10SM CLR 13/09 A3023 RMK AO2
KPSN 160615Z AUTO 10SM CLR 13/09 A3023 RMK AO2
KPSN 160555Z AUTO 36008KT 10SM CLR 14/09 A3022 RMK AO2
KPSN 160535Z AUTO 35007KT 10SM CLR 15/09 A3022 RMK AO2
KPSN 160515Z AUTO 35006KT 10SM CLR 15/09 A3022 RMK AO2
KPSN 160455Z AUTO 36008KT 10SM CLR 16/08 A3021 RMK AO2
KPSN 160435Z AUTO 35009KT 10SM CLR 17/08 A3020 RMK AO2
KPSN 160415Z AUTO 36008KT 10SM CLR 17/08 A3019 RMK AO2
KPSN 160355Z AUTO 36010KT 10SM CLR 17/08 A3018 RMK AO2
KPSN 160335Z AUTO 35009G14KT 10SM CLR 18/09 A3017 RMK AO2
KPSN 160315Z AUTO 36011KT 10SM CLR 18/10 A3016 RMK AO2
KPSN 160255Z AUTO 35011G20KT 10SM CLR 19/10 A3014 RMK AO2
KPSN 160235Z AUTO 35015KT 10SM CLR 19/11 A3013 RMK AO2
KPSN 160215Z AUTO 36013KT 10SM CLR 19/11 A3013 RMK AO2
KPSN 160155Z AUTO 34012G18KT 10SM CLR 20/12 A3012 RMK AO2
KPSN 160135Z AUTO 34011G18KT 10SM CLR 20/13 A3011 RMK AO2
KPSN 160115Z AUTO 35009KT 10SM CLR 20/15 A3010 RMK AO2
KPSN 160055Z AUTO 35007G12KT 10SM CLR 20/16 A3008 RMK AO2
KPSN 160035Z AUTO 34006KT 10SM CLR 20/16 A3007 RMK AO2
KPSN 160015Z AUTO 35010KT 10SM CLR 21/16 A3006 RMK AO2
KPSN 152355Z AUTO 34014KT 10SM CLR 21/17 A3005 RMK AO2
KPSN 152335Z AUTO 34012G19KT 10SM FEW032 22/17 A3004 RMK AO2
KPSN 152315Z AUTO 34014G19KT 10SM FEW033 23/18 A3002 RMK AO2
KPSN 152255Z AUTO 33011G20KT 10SM CLR 24/18 A3001 RMK AO2
KPSN 152235Z AUTO 33013G23KT 10SM FEW048 FEW055 25/18 A2999 RMK AO2
KPSN 152215Z AUTO 34014G19KT 10SM SCT047 SCT055 27/17 A2998 RMK AO2
KPSN 152155Z AUTO 32009G15KT 10SM SCT046 SCT050 27/18 A2997 RMK AO2
KPSN 152135Z AUTO 33009G16KT 10SM SCT049 BKN055 27/18 A2997 RMK AO2
KPSN 152115Z AUTO 31012KT 280V340 10SM FEW042 BKN050 28/19 A2996 RMK AO2
KPSN 152055Z AUTO 31010KT 10SM FEW041 OVC049 27/19 A2996 RMK AO2
KPSN 152035Z AUTO 29012G19KT 10SM BKN044 29/20 A2995 RMK AO2
KPSN 152015Z AUTO 29013G19KT 10SM BKN037 BKN043 28/21 A2995 RMK AO2
KPSN 151955Z AUTO 30011KT 10SM SCT032 BKN039 BKN060 29/22 A2994 RMK AO2
KPSN 151935Z AUTO 31009KT 10SM SCT031 BKN040 BKN070 28/23 A2994 RMK AO2
KPSN 151915Z AUTO 30010G16KT 10SM FEW027 FEW036 SCT047 29/23 A2994 RMK AO2
KPSN 151855Z AUTO 29013KT 10SM SCT027 BKN031 BKN039 28/23 A2995 RMK AO2
KPSN 151835Z AUTO 30011KT 10SM BKN029 BKN038 OVC044 28/23 A2995 RMK AO2
KPSN 151815Z AUTO 28010G17KT 10SM BKN036 OVC044 28/23 A2996 RMK AO2
KPSN 151755Z AUTO 28008G17KT 10SM FEW025 BKN033 OVC042 28/23 A2996 RMK AO2
KPSN 151735Z AUTO 28013KT 10SM BKN026 BKN032 OVC050 28/23 A2996 RMK AO2
KPSN 151715Z AUTO 29012KT 10SM BKN027 BKN031 OVC043 28/23 A2997 RMK AO2
KPSN 151655Z AUTO 25009KT 10SM BKN028 BKN033 BKN040 28/23 A2996 RMK AO2
KPSN 151635Z AUTO 24007G13KT 10SM BKN024 BKN029 28/23 A2996 RMK AO2
KPSN 151615Z AUTO 21008KT 10SM BKN022 27/23 A2996 RMK AO2
KPSN 151555Z AUTO 20007KT 10SM BKN020 27/23 A2996 RMK AO2
KPSN 151535Z AUTO 23009KT 10SM OVC019 25/23 A2996 RMK AO2
KPSN 151515Z AUTO 23010KT 10SM OVC019 26/23 A2996 RMK AO2
KPSN 151455Z AUTO 23005G11KT 9SM BKN016 OVC022 25/23 A2995 RMK AO2
KPSN 151435Z AUTO 22007KT 10SM OVC019 25/23 A2995 RMK AO2
KPSN 151415Z AUTO 22009G14KT 10SM OVC022 24/23 A2994 RMK AO2
KPSN 151355Z AUTO 19006KT 9SM OVC022 24/23 A2993 RMK AO2
KPSN 151335Z AUTO 22006KT 7SM FEW010 SCT015 OVC023 23/23 A2993 RMK AO2
KPSN 151315Z AUTO 22006KT 7SM SCT010 BKN015 OVC022 23/23 A2993 RMK AO2
KPSN 151255Z AUTO 21006KT 6SM BR BKN010 BKN014 OVC021 23/23 A2991 RMK AO2
KPSN 151235Z AUTO 20006KT 6SM BR BKN011 BKN016 OVC022 23/23 A2990 RMK AO2
KPSN 151215Z AUTO 20008KT 8SM BKN010 OVC013 23/23 A2990 RMK AO2
KPSN 151155Z AUTO 20007KT 8SM OVC009 23/23 A2989 RMK AO2
KPSN 151135Z AUTO 18007KT 8SM BKN009 OVC027 23/23 A2988 RMK AO2
KPSN 151115Z AUTO 17008G13KT 9SM OVC010 23/23 A2988 RMK AO2
KPSN 151055Z AUTO 19010G15KT 7SM OVC008 23/23 A2988 RMK AO2
KPSN 151035Z AUTO 19008KT 4SM BR OVC007 23/23 A2987 RMK AO2
KPSN 151015Z AUTO 19009KT 3SM BR OVC007 23/23 A2987 RMK AO2
KPSN 150955Z AUTO 18005KT 3SM BR OVC007 23/23 A2987 RMK AO2
KPSN 150935Z AUTO 18005KT 4SM BR OVC007 23/23 A2986 RMK AO2
KPSN 150915Z AUTO 16003KT 5SM BR OVC008 22/22 A2986 RMK AO2
KPSN 150855Z AUTO 15004KT 6SM BR BKN008 BKN013 BKN020 22/22 A2986 RMK AO2
KPSN 150835Z AUTO 15003KT 7SM FEW008 SCT018 SCT023 22/22 A2986 RMK AO2
KPSN 150815Z AUTO 15004KT 9SM FEW045 22/22 A2987 RMK AO2
KPSN 150755Z AUTO 12003KT 10SM CLR 22/22 A2987 RMK AO2
KPSN 150735Z AUTO 12004KT 10SM SCT026 SCT041 22/22 A2987 RMK AO2
KPSN 150715Z AUTO 00000KT 10SM SCT019 BKN027 OVC042 23/22 A2988 RMK AO2
KPSN 150655Z AUTO 00000KT 10SM FEW023 SCT027 BKN032 23/22 A2988 RMK AO2
KPSN 150635Z AUTO 00000KT 10SM FEW027 OVC050 23/22 A2988 RMK AO2